Korcula, Croatia
Current Conditions -  °F | °C
As of 8:00 PM on Sunday 21 Dec 2014 (Local Time) from LQMO Reporting Station
Few Clouds Few Clouds  
Wind Chill: 42°   Ceiling: Unl
Heat Index: 48°   Visibility: 6mi
Dew Point: 23°   Wind: 18mph
Humidity: 37%   Direction: 30°NNE
Pressure: 30.42"   Gusts: NA
Location:  42.96°N, 17.13°E
Report Text: LQMO 211800Z 03016KT 9999 FEW040 09/M05 Q1030
Loading
Personal Weather Stations






























Interactive Weather Map New forecast layout! Learn more

10-Day Weather Forecast

Advertisements
Track Severe Weather on mobile